Flight Track Log - Related Links

Times and Time Zones

All times are in EDT time to prevent confusion due to time zone crossing. See the SWA1471 flight status page for this flight to view local times or setup timezone preferences in your user account.

Time Position Orientation Groundspeed Altitude Reporting Facility
EDT Latitude Longitude Course Direction KTS MPH feet Rate Location/Type
Sun 04:26:37 PM 38.6667 -121.6000 80° East 167 192 1,300  Level Northern Cal TRACON
Sun 04:27:37 PM 38.6167 -121.5500 142° Southeast 221 254 3,300 2,881 Climbing Northern Cal TRACON
Sun 04:29:59 PM 38.6158 -121.3114 90° East 296 341 11,000 2,867 Climbing Oakland Center
Sun 04:31:00 PM 38.6158 -121.1883 90° East 348 400 13,000 2,164 Climbing Oakland Center
Sun 04:32:00 PM 38.4930 -121.2825 80° East  Level FlightAware Approximate
Sun 04:32:01 PM 38.6150 -121.0625 90° East 391 450 15,400  Level Oakland Center
Sun 04:34:03 PM 38.6131 -120.7547 90° East 442 509 20,500 2,656 Climbing Oakland Center
Sun 04:35:04 PM 38.6111 -120.5567 91° East 464 534 23,500 2,508 Climbing Oakland Center
Sun 04:36:05 PM 38.6147 -120.3875 88° East 474 545 25,600 1,854 Climbing Oakland Center
Sun 04:37:07 PM 38.6461 -120.2144 77° East 499 574 27,300 1,597 Climbing Oakland Center
Sun 04:38:09 PM 38.6772 -120.0386 77° East 506 582 28,900 1,672 Climbing Oakland Center
Sun 04:39:09 PM 38.7075 -119.8581 78° East 516 594 30,700 1,835 Climbing Oakland Center
Sun 04:40:10 PM 38.7392 -119.6822 77° East 515 593 32,600 1,623 Climbing Oakland Center
Sun 04:41:11 PM 38.7678 -119.5044 78° East 512 589 34,000 1,180 Climbing Oakland Center
Sun 04:42:12 PM 38.7975 -119.3197 78° East 527 606 35,000 1,073 Climbing Oakland Center
Sun 04:43:14 PM 38.8278 -119.1328 78° East 537 618 36,200 976 Climbing Oakland Center
Sun 04:44:15 PM 38.8622 -118.9139 79° East 527 606 37,000 393 Climbing Oakland Center
Sun 04:45:16 PM 38.8911 -118.7314 78° East 526 605 37,000  Level Oakland Center
Sun 04:46:17 PM 38.9200 -118.5506 78° East 524 603 37,000  Level Oakland Center
Sun 04:47:18 PM 38.9483 -118.3703 79° East 520 598 37,000  Level Oakland Center
Sun 04:48:20 PM 38.9761 -118.1892 79° East 520 598 37,000  Level Oakland Center
Sun 04:49:21 PM 39.0028 -118.0097 79° East 517 595 37,000  Level Oakland Center
Sun 04:50:22 PM 39.0303 -117.8300 79° East 516 594 37,000  Level Oakland Center
Sun 04:51:23 PM 39.0572 -117.6492 79° East 517 595 37,000  Level Oakland Center
Sun 04:52:25 PM 39.0883 -117.4319 79° East 516 594 37,000  Level Oakland Center
Sun 04:53:08 PM 39.1036 -117.3169 80° East 517 595 37,000  Level Salt Lake Center
Sun 04:54:09 PM 39.1286 -117.1425 79° East 519 597 37,000  Level Salt Lake Center
Sun 04:55:10 PM 39.1586 -116.9406 79° East 517 595 37,000  Level Salt Lake Center
Sun 04:56:11 PM 39.1825 -116.7639 80° East 522 601 37,000  Level Salt Lake Center
Sun 04:57:12 PM 39.2103 -116.5586 80° East 522 601 37,000  Level Salt Lake Center
Sun 04:58:14 PM 39.2344 -116.3833 80° East 522 601 37,000  Level Salt Lake Center
Sun 04:59:15 PM 39.2583 -116.2061 80° East 524 603 37,000  Level Salt Lake Center
Sun 05:00:16 PM 39.2858 -116.0014 80° East 521 600 37,000  Level Salt Lake Center
Sun 05:01:17 PM 39.3100 -115.8233 80° East 525 604 37,000  Level Salt Lake Center
Sun 05:02:18 PM 39.3367 -115.6189 80° East 522 601 37,000  Level Salt Lake Center
Sun 05:03:20 PM 39.3603 -115.4425 80° East 522 601 37,000  Level Salt Lake Center
Sun 05:04:21 PM 39.3819 -115.2664 81° East 519 597 37,000  Level Salt Lake Center
Sun 05:05:22 PM 39.4072 -115.0628 81° East 517 595 37,000  Level Salt Lake Center
Sun 05:06:23 PM 39.4294 -114.8853 81° East 519 597 37,000  Level Salt Lake Center
Sun 05:07:25 PM 39.4556 -114.6806 81° East 519 597 37,000  Level Salt Lake Center
Sun 05:08:26 PM 39.4758 -114.5053 81° East 516 594 37,000  Level Salt Lake Center
Sun 05:09:27 PM 39.4986 -114.3142 81° East 515 593 37,000  Level Salt Lake Center
Sun 05:10:28 PM 39.5197 -114.1306 81° East 515 593 37,000  Level Salt Lake Center
Sun 05:11:30 PM 39.5411 -113.9475 81° East 514 592 37,000  Level Salt Lake Center
Sun 05:12:31 PM 39.5619 -113.7644 82° East 513 590 37,000  Level Salt Lake Center
Sun 05:13:32 PM 39.5817 -113.5833 82° East 509 586 37,000  Level Salt Lake Center
Sun 05:14:34 PM 39.6022 -113.4006 82° East 511 588 37,000  Level Salt Lake Center
Sun 05:15:35 PM 39.6206 -113.2194 82° East 508 585 37,000  Level Salt Lake Center
Sun 05:16:36 PM 39.6406 -113.0394 82° East 505 581 37,000  Level Salt Lake Center
Sun 05:17:38 PM 39.6622 -112.8222 83° East 506 582 37,000  Level Salt Lake Center
Sun 05:18:39 PM 39.6825 -112.6439 82° East 503 579 37,000  Level Salt Lake Center
Sun 05:19:40 PM 39.7011 -112.4636 82° East 504 580 37,000  Level Salt Lake Center
Sun 05:20:42 PM 39.7194 -112.2858 82° East 502 578 37,000  Level Salt Lake Center
Sun 05:21:43 PM 39.7364 -112.1075 83° East 502 578 37,000  Level Salt Lake Center
Sun 05:22:45 PM 39.7536 -111.9283 83° East 502 578 37,000  Level Salt Lake Center
Sun 05:23:46 PM 39.7725 -111.7486 82° East 505 581 37,000  Level Salt Lake Center
Sun 05:24:47 PM 39.7897 -111.5492 84° East 502 578 37,000  Level Salt Lake Center
Sun 05:25:49 PM 39.8050 -111.3769 83° East 502 578 37,000  Level Salt Lake Center
Sun 05:26:50 PM 39.8228 -111.1753 83° East 501 577 37,000  Level Salt Lake Center
Sun 05:27:51 PM 39.8378 -111.0039 83° East 500 575 37,000  Level Salt Lake Center
Sun 05:28:53 PM 39.8564 -110.8056 83° East 496 571 37,000  Level Salt Lake Center
Sun 05:29:54 PM 39.8700 -110.6367 84° East 491 565 37,000  Level Salt Lake Center
Sun 05:30:55 PM 39.8842 -110.4689 84° East 487 560 37,000  Level Salt Lake Center
Sun 05:31:57 PM 39.9000 -110.2725 84° East 489 563 37,000  Level Salt Lake Center
Sun 05:32:58 PM 39.9139 -110.1039 84° East 488 562 37,000  Level Salt Lake Center
Sun 05:33:59 PM 39.9269 -109.9356 84° East 487 560 37,000  Level Salt Lake Center
Sun 05:35:01 PM 39.9425 -109.7397 84° East 487 560 37,000  Level Salt Lake Center
Sun 05:36:02 PM 39.9556 -109.5714 84° East 488 562 37,000  Level Salt Lake Center
Sun 05:37:04 PM 39.9703 -109.3739 84° East 489 563 37,000  Level Salt Lake Center
Sun 05:37:51 PM 39.9806 -109.2317 85° East 488 562 37,000  Level Denver Center
Sun 05:38:53 PM 39.9925 -109.0611 85° East 488 562 37,000  Level Denver Center
Sun 05:39:54 PM 40.0042 -108.8919 85° East 487 560 37,000  Level Denver Center
Sun 05:40:56 PM 40.0183 -108.6944 85° East 486 559 37,000  Level Denver Center
Sun 05:41:57 PM 40.0281 -108.5253 86° East 485 558 37,000  Level Denver Center
Sun 05:42:59 PM 40.0400 -108.3569 85° East 484 557 37,000  Level Denver Center
Sun 05:44:00 PM 40.0528 -108.1878 84° East 487 560 37,000  Level Denver Center
Sun 05:45:02 PM 40.0781 -107.9936 80° East 486 559 37,000  Level Denver Center
Sun 05:46:04 PM 40.1017 -107.7989 81° East 486 559 37,000  Level Denver Center
Sun 05:47:05 PM 40.1214 -107.6308 81° East 487 560 37,000  Level Denver Center
Sun 05:48:07 PM 40.1403 -107.4617 82° East 491 565 37,000  Level Denver Center
Sun 05:49:08 PM 40.1631 -107.2631 81° East 495 570 37,000  Level Denver Center
Sun 05:50:10 PM 40.1803 -107.1219 81° East 494 568 37,000 -532 Level Denver Center
Sun 05:51:12 PM 40.2042 -106.8933 82° East 497 572 35,900 -1,024 Descending Denver Center
Sun 05:52:13 PM 40.2250 -106.7158 81° East 495 570 34,900 -2,049 Descending Denver Center
Sun 05:53:15 PM 40.2514 -106.5389 79° East 494 568 31,700 -2,829 Descending Denver Center
Sun 05:54:16 PM 40.2719 -106.3586 81° East 488 562 29,100 -2,439 Descending Denver Center
Sun 05:55:18 PM 40.2847 -106.1967 84° East 472 543 26,700 -2,293 Descending Denver Center
Sun 05:56:19 PM 40.2783 -106.0269 93° East 455 524 24,400 -2,146 Descending Denver Center
Sun 05:57:21 PM 40.2689 -105.8681 94° East 442 509 22,300 -1,707 Descending Denver Center
Sun 05:58:22 PM 40.2553 -105.7433 98° East 436 502 20,900 -1,824 Descending Denver Center
Sun 05:59:26 PM 40.2425 -105.5728 96° East 401 461 18,500 -2,286 Descending Denver Center
Sun 06:00:28 PM 40.2472 -105.4025 88° East 390 449 16,100 -1,854 Descending Denver Center
Sun 06:01:29 PM 40.2422 -105.2714 93° East 365 420 14,700 -976 Descending Denver Center
Sun 06:02:31 PM 40.1892 -105.1756 126° Southeast 326 375 14,100 -667 Descending Denver Center
Sun 06:03:44 PM 40.1244 -105.1311 152° Southeast 263 303 13,200 -489 Descending Denver Center
Sun 06:04:46 PM 40.0378 -105.1292 179° South 254 292 13,000 -537 Descending Denver Center
Sun 06:05:47 PM 39.9842 -105.1297 180° South 252 290 12,100 -1,220 Descending Denver Center
Sun 06:06:49 PM 39.9111 -105.0850 155° Southeast 252 290 10,500 -1,306 Descending Denver Center
Sun 06:07:51 PM 39.8650 -105.0097 129° Southeast 249 287 9,400 -780 Descending Denver Center
Sun 06:08:52 PM 39.8408 -104.9372 113° Southeast 217 250 8,900 -976 Descending Denver Center
Sun 06:09:54 PM 39.8417 -104.8669 89° East 197 227 7,400 -1,161 Descending Denver Center
Sun 06:10:56 PM 39.8414 -104.8039 90° East 170 196 6,500 -829 Descending Denver Center
Sun 06:11:57 PM 39.8411 -104.7481 90° East 158 182 5,700 -585 Descending Denver Center
Sun 06:12:59 PM 39.8411 -104.6892 90° East 155 178 5,300 -387 Descending Denver Center
Sun 06:14:00 PM 39.8500 -104.6667 North  Level FlightAware Approximate
Sun 06:21:00 PM 39.8617 -104.6732 North  Level Estimated
Sun 06:22:00 PM 39.8617 -104.6732 North  Level Estimated
Sun 06:23:00 PM 39.8617 -104.6732 North  Level Estimated

Login

Don't have an account? Register now (free) for customized features, flight alerts, and more!